Delfinopolis, Brazil
Current Conditions -  °F | °C
As of 11:00 AM on Tuesday 27 Jan 2015 (Local Time) from SBAX Reporting Station
Few Clouds Few Clouds  
Wind Chill: 81°   Ceiling: Unl
Heat Index: 82°   Visibility: 6mi
Dew Point: 64°   Wind: 3mph
Humidity: 58%   Direction: 350°N
Pressure: 30.18"   Gusts: NA
Location:  20.34°S, 46.85°W
Report Text: SBAX 271300Z 35003KT 9999 FEW020 27/18 Q1022
Loading
Personal Weather Stations






























Interactive Weather Map New forecast layout! Learn more

10-Day Weather Forecast

Advertisements
Track Severe Weather on mobile